Aviation Digital Data Service (ADDS)

Output produced by METARs form (1555 UTC 15 December 2017)
found at http://aviationweather.gov/adds/metars/
 
KGSP 151122Z 1512/1612 03004KT P6SM SCT200 
     FM151600 28005KT P6SM SCT200 
     FM152300 32006KT P6SM SCT200 
     FM160600 VRB02KT P6SM SKC